Romang, Argentina
Current Conditions -  °F | °C
As of 5:00 PM on Friday 24 Oct 2014 (Local Time) from SARC Reporting Station
Clear Clear  
Wind Chill: 93°   Ceiling: Unl
Heat Index: 93°   Visibility: 6mi
Dew Point: 59°   Wind: 14mph
Humidity: 32%   Direction: 200°SSW
Pressure: 29.8"   Gusts: NA
Location:  29.49°S, 59.75°W
Report Text: SARC 242000Z 20012KT 160V250 9000 NSC34/15 Q1009
Loading
Personal Weather Stations






























Interactive Weather Map
Tropical Storm Tracking
New forecast layout! Learn more

10-Day Weather Forecast

Advertisements
Track Severe Weather on mobile